sensor_id;sensor_type;location;lat;lon;timestamp;P1;durP1;ratioP1;P2;durP2;ratioP2
74677;SDS011;63207;56.328;43.994;2022-10-31T00:02:11;0.90;;;0.70;;
74677;SDS011;63207;56.328;43.994;2022-10-31T00:04:37;0.60;;;0.60;;
74677;SDS011;63207;56.328;43.994;2022-10-31T00:07:03;1.00;;;0.80;;
74677;SDS011;63207;56.328;43.994;2022-10-31T00:09:29;0.60;;;0.60;;
74677;SDS011;63207;56.328;43.994;2022-10-31T00:11:55;0.70;;;0.70;;
74677;SDS011;63207;56.328;43.994;2022-10-31T00:14:20;0.65;;;0.65;;
74677;SDS011;63207;56.328;43.994;2022-10-31T00:16:46;0.90;;;0.80;;
74677;SDS011;63207;56.328;43.994;2022-10-31T00:19:12;0.70;;;0.70;;
74677;SDS011;63207;56.328;43.994;2022-10-31T00:21:38;0.70;;;0.60;;
74677;SDS011;63207;56.328;43.994;2022-10-31T00:24:04;0.70;;;0.70;;
74677;SDS011;63207;56.328;43.994;2022-10-31T00:26:30;0.65;;;0.63;;
74677;SDS011;63207;56.328;43.994;2022-10-31T00:28:57;1.00;;;0.77;;
74677;SDS011;63207;56.328;43.994;2022-10-31T00:31:25;0.82;;;0.60;;
74677;SDS011;63207;56.328;43.994;2022-10-31T00:33:51;0.98;;;0.80;;
74677;SDS011;63207;56.328;43.994;2022-10-31T00:36:18;0.70;;;0.70;;
74677;SDS011;63207;56.328;43.994;2022-10-31T00:38:45;0.60;;;0.60;;
74677;SDS011;63207;56.328;43.994;2022-10-31T00:41:12;0.85;;;0.65;;
74677;SDS011;63207;56.328;43.994;2022-10-31T00:43:41;0.88;;;0.68;;
74677;SDS011;63207;56.328;43.994;2022-10-31T00:46:08;0.63;;;0.60;;
74677;SDS011;63207;56.328;43.994;2022-10-31T00:48:34;0.60;;;0.60;;
74677;SDS011;63207;56.328;43.994;2022-10-31T00:51:00;0.70;;;0.60;;
74677;SDS011;63207;56.328;43.994;2022-10-31T00:53:26;0.70;;;0.68;;
74677;SDS011;63207;56.328;43.994;2022-10-31T00:56:10;0.57;;;0.57;;
74677;SDS011;63207;56.328;43.994;2022-10-31T00:58:36;0.60;;;0.60;;
74677;SDS011;63207;56.328;43.994;2022-10-31T01:01:02;0.75;;;0.70;;
74677;SDS011;63207;56.328;43.994;2022-10-31T01:03:30;0.88;;;0.73;;
74677;SDS011;63207;56.328;43.994;2022-10-31T01:08:51;0.98;;;0.73;;
74677;SDS011;63207;56.328;43.994;2022-10-31T01:11:21;0.60;;;0.60;;
74677;SDS011;63207;56.328;43.994;2022-10-31T01:13:49;0.68;;;0.68;;
74677;SDS011;63207;56.328;43.994;2022-10-31T01:16:18;0.70;;;0.70;;
74677;SDS011;63207;56.328;43.994;2022-10-31T01:18:45;0.80;;;0.70;;
74677;SDS011;63207;56.328;43.994;2022-10-31T01:21:13;0.65;;;0.60;;
74677;SDS011;63207;56.328;43.994;2022-10-31T01:23:44;0.70;;;0.70;;
74677;SDS011;63207;56.328;43.994;2022-10-31T01:26:13;0.60;;;0.60;;
74677;SDS011;63207;56.328;43.994;2022-10-31T01:28:53;1.27;;;0.80;;
74677;SDS011;63207;56.328;43.994;2022-10-31T01:31:22;0.82;;;0.70;;
74677;SDS011;63207;56.328;43.994;2022-10-31T01:33:50;0.70;;;0.70;;
74677;SDS011;63207;56.328;43.994;2022-10-31T01:36:22;0.90;;;0.70;;
74677;SDS011;63207;56.328;43.994;2022-10-31T01:38:53;0.70;;;0.70;;
74677;SDS011;63207;56.328;43.994;2022-10-31T01:41:22;0.65;;;0.52;;
74677;SDS011;63207;56.328;43.994;2022-10-31T01:43:51;1.10;;;0.70;;
74677;SDS011;63207;56.328;43.994;2022-10-31T01:46:27;0.90;;;0.70;;
74677;SDS011;63207;56.328;43.994;2022-10-31T01:48:57;0.90;;;0.70;;
74677;SDS011;63207;56.328;43.994;2022-10-31T01:51:27;0.80;;;0.70;;
74677;SDS011;63207;56.328;43.994;2022-10-31T01:53:57;0.65;;;0.65;;
74677;SDS011;63207;56.328;43.994;2022-10-31T01:56:27;0.60;;;0.60;;
74677;SDS011;63207;56.328;43.994;2022-10-31T01:58:53;0.80;;;0.70;;
74677;SDS011;63207;56.328;43.994;2022-10-31T02:01:22;0.63;;;0.63;;
74677;SDS011;63207;56.328;43.994;2022-10-31T02:03:48;0.80;;;0.70;;
74677;SDS011;63207;56.328;43.994;2022-10-31T02:06:19;0.93;;;0.70;;
74677;SDS011;63207;56.328;43.994;2022-10-31T02:08:52;0.73;;;0.68;;
74677;SDS011;63207;56.328;43.994;2022-10-31T02:11:20;0.60;;;0.60;;
74677;SDS011;63207;56.328;43.994;2022-10-31T02:13:46;0.50;;;0.50;;
74677;SDS011;63207;56.328;43.994;2022-10-31T02:16:33;0.68;;;0.60;;
74677;SDS011;63207;56.328;43.994;2022-10-31T02:18:59;0.60;;;0.60;;
74677;SDS011;63207;56.328;43.994;2022-10-31T02:24:32;1.02;;;0.80;;
74677;SDS011;63207;56.328;43.994;2022-10-31T02:27:08;0.90;;;0.70;;
74677;SDS011;63207;56.328;43.994;2022-10-31T02:32:51;0.70;;;0.70;;
74677;SDS011;63207;56.328;43.994;2022-10-31T02:40:45;0.80;;;0.73;;
74677;SDS011;63207;56.328;43.994;2022-10-31T02:46:35;0.60;;;0.60;;
74677;SDS011;63207;56.328;43.994;2022-10-31T02:49:11;0.65;;;0.65;;
74677;SDS011;63207;56.328;43.994;2022-10-31T02:51:47;0.68;;;0.68;;
74677;SDS011;63207;56.328;43.994;2022-10-31T02:54:18;0.65;;;0.65;;
74677;SDS011;63207;56.328;43.994;2022-10-31T02:56:50;0.60;;;0.60;;
74677;SDS011;63207;56.328;43.994;2022-10-31T02:59:20;0.73;;;0.68;;
74677;SDS011;63207;56.328;43.994;2022-10-31T03:07:46;0.60;;;0.60;;
74677;SDS011;63207;56.328;43.994;2022-10-31T03:10:24;0.70;;;0.60;;
74677;SDS011;63207;56.328;43.994;2022-10-31T03:15:54;0.60;;;0.60;;
74677;SDS011;63207;56.328;43.994;2022-10-31T03:18:31;0.80;;;0.80;;
74677;SDS011;63207;56.328;43.994;2022-10-31T03:21:03;0.60;;;0.60;;
74677;SDS011;63207;56.328;43.994;2022-10-31T03:23:52;0.80;;;0.60;;
74677;SDS011;63207;56.328;43.994;2022-10-31T03:26:20;0.70;;;0.70;;
74677;SDS011;63207;56.328;43.994;2022-10-31T03:28:50;0.60;;;0.60;;
74677;SDS011;63207;56.328;43.994;2022-10-31T03:31:23;0.53;;;0.53;;
74677;SDS011;63207;56.328;43.994;2022-10-31T03:33:54;0.60;;;0.60;;
74677;SDS011;63207;56.328;43.994;2022-10-31T03:36:42;0.70;;;0.70;;
74677;SDS011;63207;56.328;43.994;2022-10-31T03:39:11;0.63;;;0.63;;
74677;SDS011;63207;56.328;43.994;2022-10-31T03:41:41;1.10;;;0.80;;
74677;SDS011;63207;56.328;43.994;2022-10-31T03:44:14;0.60;;;0.60;;
74677;SDS011;63207;56.328;43.994;2022-10-31T03:46:47;0.65;;;0.60;;
74677;SDS011;63207;56.328;43.994;2022-10-31T03:49:13;0.70;;;0.70;;
74677;SDS011;63207;56.328;43.994;2022-10-31T04:00:00;0.60;;;0.60;;
74677;SDS011;63207;56.328;43.994;2022-10-31T04:02:31;1.17;;;0.70;;
74677;SDS011;63207;56.328;43.994;2022-10-31T04:04:59;0.77;;;0.73;;
74677;SDS011;63207;56.328;43.994;2022-10-31T04:07:30;0.60;;;0.60;;
74677;SDS011;63207;56.328;43.994;2022-10-31T04:10:01;0.65;;;0.60;;
74677;SDS011;63207;56.328;43.994;2022-10-31T04:12:30;0.82;;;0.60;;
74677;SDS011;63207;56.328;43.994;2022-10-31T04:15:18;0.68;;;0.60;;
74677;SDS011;63207;56.328;43.994;2022-10-31T04:17:45;0.60;;;0.60;;
74677;SDS011;63207;56.328;43.994;2022-10-31T04:20:17;0.70;;;0.70;;
74677;SDS011;63207;56.328;43.994;2022-10-31T04:22:43;0.77;;;0.70;;
74677;SDS011;63207;56.328;43.994;2022-10-31T04:25:10;0.60;;;0.60;;
74677;SDS011;63207;56.328;43.994;2022-10-31T04:27:38;1.10;;;0.70;;
74677;SDS011;63207;56.328;43.994;2022-10-31T04:30:06;0.65;;;0.63;;
74677;SDS011;63207;56.328;43.994;2022-10-31T04:32:35;0.70;;;0.70;;
74677;SDS011;63207;56.328;43.994;2022-10-31T04:35:19;0.60;;;0.60;;
74677;SDS011;63207;56.328;43.994;2022-10-31T04:37:45;0.80;;;0.70;;
74677;SDS011;63207;56.328;43.994;2022-10-31T04:40:12;0.73;;;0.73;;
74677;SDS011;63207;56.328;43.994;2022-10-31T04:42:56;0.60;;;0.60;;
74677;SDS011;63207;56.328;43.994;2022-10-31T04:45:22;0.93;;;0.70;;
74677;SDS011;63207;56.328;43.994;2022-10-31T04:47:50;0.77;;;0.70;;
74677;SDS011;63207;56.328;43.994;2022-10-31T04:50:17;0.65;;;0.65;;
74677;SDS011;63207;56.328;43.994;2022-10-31T04:52:44;0.68;;;0.68;;
74677;SDS011;63207;56.328;43.994;2022-10-31T04:55:14;1.15;;;0.60;;
74677;SDS011;63207;56.328;43.994;2022-10-31T04:57:47;0.68;;;0.68;;
74677;SDS011;63207;56.328;43.994;2022-10-31T05:00:16;0.82;;;0.70;;
74677;SDS011;63207;56.328;43.994;2022-10-31T05:02:45;1.30;;;0.70;;
74677;SDS011;63207;56.328;43.994;2022-10-31T05:05:15;1.65;;;0.90;;
74677;SDS011;63207;56.328;43.994;2022-10-31T05:07:42;0.73;;;0.70;;
74677;SDS011;63207;56.328;43.994;2022-10-31T05:10:12;0.70;;;0.70;;
74677;SDS011;63207;56.328;43.994;2022-10-31T05:12:49;0.63;;;0.63;;
74677;SDS011;63207;56.328;43.994;2022-10-31T05:15:35;0.80;;;0.80;;
74677;SDS011;63207;56.328;43.994;2022-10-31T05:18:21;1.02;;;0.70;;
74677;SDS011;63207;56.328;43.994;2022-10-31T05:21:06;0.98;;;0.77;;
74677;SDS011;63207;56.328;43.994;2022-10-31T05:23:50;0.80;;;0.70;;
74677;SDS011;63207;56.328;43.994;2022-10-31T05:26:19;0.60;;;0.60;;
74677;SDS011;63207;56.328;43.994;2022-10-31T05:28:46;0.90;;;0.90;;
74677;SDS011;63207;56.328;43.994;2022-10-31T05:31:12;0.60;;;0.60;;
74677;SDS011;63207;56.328;43.994;2022-10-31T05:33:56;0.75;;;0.60;;
74677;SDS011;63207;56.328;43.994;2022-10-31T05:36:41;0.80;;;0.70;;
74677;SDS011;63207;56.328;43.994;2022-10-31T05:39:25;0.70;;;0.70;;
74677;SDS011;63207;56.328;43.994;2022-10-31T05:41:54;0.80;;;0.75;;
74677;SDS011;63207;56.328;43.994;2022-10-31T05:44:24;0.70;;;0.70;;
74677;SDS011;63207;56.328;43.994;2022-10-31T05:47:13;1.15;;;0.60;;
74677;SDS011;63207;56.328;43.994;2022-10-31T05:50:15;0.60;;;0.60;;
74677;SDS011;63207;56.328;43.994;2022-10-31T05:53:00;0.70;;;0.60;;
74677;SDS011;63207;56.328;43.994;2022-10-31T05:55:33;0.80;;;0.63;;
74677;SDS011;63207;56.328;43.994;2022-10-31T05:58:18;0.70;;;0.70;;
74677;SDS011;63207;56.328;43.994;2022-10-31T06:00:52;0.75;;;0.60;;
74677;SDS011;63207;56.328;43.994;2022-10-31T06:03:36;1.33;;;0.70;;
74677;SDS011;63207;56.328;43.994;2022-10-31T06:06:05;0.77;;;0.70;;
74677;SDS011;63207;56.328;43.994;2022-10-31T06:08:35;3.50;;;0.85;;
74677;SDS011;63207;56.328;43.994;2022-10-31T06:11:04;2.33;;;0.80;;
74677;SDS011;63207;56.328;43.994;2022-10-31T06:14:03;1.30;;;0.70;;
74677;SDS011;63207;56.328;43.994;2022-10-31T06:16:46;1.60;;;0.80;;
74677;SDS011;63207;56.328;43.994;2022-10-31T06:19:30;1.80;;;0.90;;
74677;SDS011;63207;56.328;43.994;2022-10-31T06:21:57;2.67;;;0.80;;
74677;SDS011;63207;56.328;43.994;2022-10-31T06:24:23;2.83;;;0.80;;
74677;SDS011;63207;56.328;43.994;2022-10-31T06:26:51;2.08;;;0.90;;
74677;SDS011;63207;56.328;43.994;2022-10-31T06:29:17;1.20;;;0.80;;
74677;SDS011;63207;56.328;43.994;2022-10-31T06:32:04;1.75;;;0.75;;
74677;SDS011;63207;56.328;43.994;2022-10-31T06:34:36;0.60;;;0.60;;
74677;SDS011;63207;56.328;43.994;2022-10-31T06:37:01;1.67;;;0.77;;
74677;SDS011;63207;56.328;43.994;2022-10-31T06:39:29;1.50;;;0.80;;
74677;SDS011;63207;56.328;43.994;2022-10-31T06:41:55;1.15;;;0.73;;
74677;SDS011;63207;56.328;43.994;2022-10-31T06:44:22;0.73;;;0.73;;
74677;SDS011;63207;56.328;43.994;2022-10-31T06:46:54;3.08;;;0.95;;
74677;SDS011;63207;56.328;43.994;2022-10-31T06:49:38;2.88;;;0.85;;
74677;SDS011;63207;56.328;43.994;2022-10-31T06:52:10;1.38;;;0.80;;
74677;SDS011;63207;56.328;43.994;2022-10-31T06:54:36;1.58;;;0.80;;
74677;SDS011;63207;56.328;43.994;2022-10-31T06:57:03;0.75;;;0.70;;
74677;SDS011;63207;56.328;43.994;2022-10-31T06:59:29;2.10;;;0.70;;
74677;SDS011;63207;56.328;43.994;2022-10-31T07:02:07;0.98;;;0.70;;
74677;SDS011;63207;56.328;43.994;2022-10-31T07:04:34;0.93;;;0.80;;
74677;SDS011;63207;56.328;43.994;2022-10-31T07:07:00;1.40;;;0.70;;
74677;SDS011;63207;56.328;43.994;2022-10-31T07:09:26;1.27;;;0.60;;
74677;SDS011;63207;56.328;43.994;2022-10-31T07:11:53;0.85;;;0.70;;
74677;SDS011;63207;56.328;43.994;2022-10-31T07:14:19;1.38;;;0.80;;
74677;SDS011;63207;56.328;43.994;2022-10-31T07:16:49;0.82;;;0.82;;
74677;SDS011;63207;56.328;43.994;2022-10-31T07:19:34;1.02;;;0.80;;
74677;SDS011;63207;56.328;43.994;2022-10-31T07:22:01;0.85;;;0.70;;
74677;SDS011;63207;56.328;43.994;2022-10-31T07:24:28;1.73;;;0.73;;
74677;SDS011;63207;56.328;43.994;2022-10-31T07:27:13;0.80;;;0.80;;
74677;SDS011;63207;56.328;43.994;2022-10-31T07:29:42;1.33;;;0.80;;
74677;SDS011;63207;56.328;43.994;2022-10-31T07:32:08;1.00;;;0.88;;
74677;SDS011;63207;56.328;43.994;2022-10-31T07:34:37;0.90;;;0.80;;
74677;SDS011;63207;56.328;43.994;2022-10-31T07:37:22;0.85;;;0.75;;
74677;SDS011;63207;56.328;43.994;2022-10-31T07:39:53;1.92;;;0.70;;
74677;SDS011;63207;56.328;43.994;2022-10-31T07:42:19;1.00;;;0.80;;
74677;SDS011;63207;56.328;43.994;2022-10-31T07:44:45;1.60;;;0.70;;
74677;SDS011;63207;56.328;43.994;2022-10-31T07:50:15;0.68;;;0.68;;
74677;SDS011;63207;56.328;43.994;2022-10-31T07:53:02;2.03;;;0.77;;
74677;SDS011;63207;56.328;43.994;2022-10-31T07:55:49;0.82;;;0.70;;
74677;SDS011;63207;56.328;43.994;2022-10-31T07:58:15;1.25;;;0.70;;
74677;SDS011;63207;56.328;43.994;2022-10-31T08:00:43;1.38;;;0.80;;
74677;SDS011;63207;56.328;43.994;2022-10-31T08:03:15;0.80;;;0.70;;
74677;SDS011;63207;56.328;43.994;2022-10-31T08:06:02;2.72;;;0.70;;
74677;SDS011;63207;56.328;43.994;2022-10-31T08:08:48;1.15;;;0.73;;
74677;SDS011;63207;56.328;43.994;2022-10-31T08:11:14;2.95;;;0.90;;
74677;SDS011;63207;56.328;43.994;2022-10-31T08:13:41;1.15;;;0.80;;
74677;SDS011;63207;56.328;43.994;2022-10-31T08:16:09;1.10;;;0.90;;
74677;SDS011;63207;56.328;43.994;2022-10-31T08:18:42;1.23;;;0.80;;
74677;SDS011;63207;56.328;43.994;2022-10-31T08:21:11;1.20;;;0.77;;
74677;SDS011;63207;56.328;43.994;2022-10-31T08:23:56;0.85;;;0.73;;
74677;SDS011;63207;56.328;43.994;2022-10-31T08:26:23;1.48;;;0.80;;
74677;SDS011;63207;56.328;43.994;2022-10-31T08:28:50;0.93;;;0.70;;
74677;SDS011;63207;56.328;43.994;2022-10-31T08:31:21;1.52;;;0.85;;
74677;SDS011;63207;56.328;43.994;2022-10-31T08:34:09;0.90;;;0.80;;
74677;SDS011;63207;56.328;43.994;2022-10-31T08:39:26;1.10;;;0.80;;
74677;SDS011;63207;56.328;43.994;2022-10-31T08:41:52;0.70;;;0.70;;
74677;SDS011;63207;56.328;43.994;2022-10-31T08:44:18;0.98;;;0.73;;
74677;SDS011;63207;56.328;43.994;2022-10-31T08:46:44;1.52;;;0.90;;
74677;SDS011;63207;56.328;43.994;2022-10-31T08:49:10;1.00;;;0.77;;
74677;SDS011;63207;56.328;43.994;2022-10-31T08:51:37;1.33;;;0.73;;
74677;SDS011;63207;56.328;43.994;2022-10-31T08:56:54;0.98;;;0.73;;
74677;SDS011;63207;56.328;43.994;2022-10-31T08:59:39;0.85;;;0.70;;
74677;SDS011;63207;56.328;43.994;2022-10-31T09:02:14;0.90;;;0.80;;
74677;SDS011;63207;56.328;43.994;2022-10-31T09:04:40;0.70;;;0.70;;
74677;SDS011;63207;56.328;43.994;2022-10-31T09:07:06;0.70;;;0.68;;
74677;SDS011;63207;56.328;43.994;2022-10-31T09:09:31;1.48;;;0.80;;
74677;SDS011;63207;56.328;43.994;2022-10-31T09:11:57;1.63;;;0.90;;
74677;SDS011;63207;56.328;43.994;2022-10-31T09:14:42;0.90;;;0.70;;
74677;SDS011;63207;56.328;43.994;2022-10-31T09:17:45;2.85;;;0.75;;
74677;SDS011;63207;56.328;43.994;2022-10-31T09:20:35;1.58;;;0.88;;
74677;SDS011;63207;56.328;43.994;2022-10-31T09:23:03;1.35;;;0.80;;
74677;SDS011;63207;56.328;43.994;2022-10-31T09:25:36;1.33;;;0.80;;
74677;SDS011;63207;56.328;43.994;2022-10-31T09:28:22;1.55;;;0.80;;
74677;SDS011;63207;56.328;43.994;2022-10-31T09:30:50;0.70;;;0.70;;
74677;SDS011;63207;56.328;43.994;2022-10-31T09:33:37;1.10;;;0.80;;
74677;SDS011;63207;56.328;43.994;2022-10-31T09:36:38;1.00;;;0.80;;
74677;SDS011;63207;56.328;43.994;2022-10-31T09:39:07;1.30;;;0.82;;
74677;SDS011;63207;56.328;43.994;2022-10-31T09:44:33;1.42;;;0.77;;
74677;SDS011;63207;56.328;43.994;2022-10-31T09:50:24;0.88;;;0.77;;
74677;SDS011;63207;56.328;43.994;2022-10-31T09:53:43;1.00;;;0.88;;
74677;SDS011;63207;56.328;43.994;2022-10-31T09:56:18;0.75;;;0.70;;
74677;SDS011;63207;56.328;43.994;2022-10-31T09:58:55;1.05;;;0.80;;
74677;SDS011;63207;56.328;43.994;2022-10-31T10:04:31;0.82;;;0.70;;
74677;SDS011;63207;56.328;43.994;2022-10-31T10:10:13;0.85;;;0.70;;
74677;SDS011;63207;56.328;43.994;2022-10-31T10:13:45;0.93;;;0.80;;
74677;SDS011;63207;56.328;43.994;2022-10-31T10:15:54;0.85;;;0.80;;
74677;SDS011;63207;56.328;43.994;2022-10-31T10:21:59;0.98;;;0.80;;
74677;SDS011;63207;56.328;43.994;2022-10-31T10:30:24;1.35;;;0.80;;
74677;SDS011;63207;56.328;43.994;2022-10-31T10:32:57;0.90;;;0.80;;
74677;SDS011;63207;56.328;43.994;2022-10-31T10:36:26;0.80;;;0.80;;
74677;SDS011;63207;56.328;43.994;2022-10-31T10:41:20;1.42;;;0.80;;
74677;SDS011;63207;56.328;43.994;2022-10-31T10:43:51;1.25;;;0.80;;
74677;SDS011;63207;56.328;43.994;2022-10-31T10:52:30;0.98;;;0.70;;
74677;SDS011;63207;56.328;43.994;2022-10-31T11:00:30;0.85;;;0.77;;
74677;SDS011;63207;56.328;43.994;2022-10-31T11:02:56;1.42;;;0.80;;
74677;SDS011;63207;56.328;43.994;2022-10-31T11:05:28;0.80;;;0.80;;
74677;SDS011;63207;56.328;43.994;2022-10-31T11:07:58;1.25;;;0.90;;
74677;SDS011;63207;56.328;43.994;2022-10-31T11:10:24;1.30;;;0.80;;
74677;SDS011;63207;56.328;43.994;2022-10-31T11:13:03;1.05;;;0.80;;
74677;SDS011;63207;56.328;43.994;2022-10-31T11:15:34;1.17;;;0.93;;
74677;SDS011;63207;56.328;43.994;2022-10-31T11:19:04;1.58;;;0.90;;
74677;SDS011;63207;56.328;43.994;2022-10-31T11:21:05;0.93;;;0.80;;
74677;SDS011;63207;56.328;43.994;2022-10-31T11:23:31;0.95;;;0.80;;
74677;SDS011;63207;56.328;43.994;2022-10-31T11:26:18;1.23;;;0.85;;
74677;SDS011;63207;56.328;43.994;2022-10-31T11:28:55;0.98;;;0.88;;
74677;SDS011;63207;56.328;43.994;2022-10-31T11:31:22;1.00;;;0.82;;
74677;SDS011;63207;56.328;43.994;2022-10-31T11:33:50;0.80;;;0.80;;
74677;SDS011;63207;56.328;43.994;2022-10-31T11:36:25;1.10;;;0.82;;
74677;SDS011;63207;56.328;43.994;2022-10-31T11:39:20;1.00;;;0.90;;
74677;SDS011;63207;56.328;43.994;2022-10-31T11:41:49;1.10;;;0.88;;
74677;SDS011;63207;56.328;43.994;2022-10-31T11:44:35;0.90;;;0.80;;
74677;SDS011;63207;56.328;43.994;2022-10-31T11:47:02;0.85;;;0.70;;
74677;SDS011;63207;56.328;43.994;2022-10-31T11:49:41;0.98;;;0.85;;
74677;SDS011;63207;56.328;43.994;2022-10-31T11:52:25;1.15;;;0.90;;
74677;SDS011;63207;56.328;43.994;2022-10-31T11:57:32;1.10;;;0.80;;
74677;SDS011;63207;56.328;43.994;2022-10-31T12:06:05;0.90;;;0.82;;
74677;SDS011;63207;56.328;43.994;2022-10-31T12:08:36;1.02;;;0.93;;
74677;SDS011;63207;56.328;43.994;2022-10-31T12:16:20;1.85;;;0.95;;
74677;SDS011;63207;56.328;43.994;2022-10-31T12:21:30;1.35;;;0.80;;
74677;SDS011;63207;56.328;43.994;2022-10-31T12:27:13;1.70;;;0.88;;
74677;SDS011;63207;56.328;43.994;2022-10-31T12:32:15;1.40;;;0.80;;
74677;SDS011;63207;56.328;43.994;2022-10-31T12:49:44;1.10;;;0.90;;
74677;SDS011;63207;56.328;43.994;2022-10-31T12:55:12;1.30;;;0.73;;
74677;SDS011;63207;56.328;43.994;2022-10-31T12:57:52;1.70;;;0.90;;
74677;SDS011;63207;56.328;43.994;2022-10-31T13:00:23;1.90;;;1.00;;
74677;SDS011;63207;56.328;43.994;2022-10-31T13:02:54;1.30;;;0.90;;
74677;SDS011;63207;56.328;43.994;2022-10-31T13:14:11;0.90;;;0.80;;
74677;SDS011;63207;56.328;43.994;2022-10-31T13:16:28;1.25;;;0.77;;
74677;SDS011;63207;56.328;43.994;2022-10-31T13:19:00;1.05;;;0.75;;
74677;SDS011;63207;56.328;43.994;2022-10-31T13:24:16;1.25;;;0.85;;
74677;SDS011;63207;56.328;43.994;2022-10-31T13:26:47;0.70;;;0.65;;
74677;SDS011;63207;56.328;43.994;2022-10-31T13:31:42;0.90;;;0.70;;
74677;SDS011;63207;56.328;43.994;2022-10-31T13:34:10;1.50;;;0.98;;
74677;SDS011;63207;56.328;43.994;2022-10-31T13:42:24;1.27;;;0.82;;
74677;SDS011;63207;56.328;43.994;2022-10-31T13:45:15;1.42;;;0.82;;
74677;SDS011;63207;56.328;43.994;2022-10-31T13:50:54;1.10;;;0.80;;
74677;SDS011;63207;56.328;43.994;2022-10-31T13:53:22;0.80;;;0.80;;
74677;SDS011;63207;56.328;43.994;2022-10-31T13:56:14;0.80;;;0.70;;
74677;SDS011;63207;56.328;43.994;2022-10-31T13:58:59;1.10;;;0.80;;
74677;SDS011;63207;56.328;43.994;2022-10-31T14:01:34;1.27;;;0.85;;
74677;SDS011;63207;56.328;43.994;2022-10-31T14:04:06;0.88;;;0.70;;
74677;SDS011;63207;56.328;43.994;2022-10-31T14:11:51;1.40;;;0.90;;
74677;SDS011;63207;56.328;43.994;2022-10-31T14:14:18;1.38;;;0.80;;
74677;SDS011;63207;56.328;43.994;2022-10-31T14:16:51;1.25;;;1.10;;
74677;SDS011;63207;56.328;43.994;2022-10-31T14:19:20;1.02;;;0.80;;
74677;SDS011;63207;56.328;43.994;2022-10-31T14:21:47;0.85;;;0.70;;
74677;SDS011;63207;56.328;43.994;2022-10-31T14:26:50;1.10;;;0.80;;
74677;SDS011;63207;56.328;43.994;2022-10-31T14:29:27;0.73;;;0.70;;
74677;SDS011;63207;56.328;43.994;2022-10-31T14:34:50;1.30;;;1.10;;
74677;SDS011;63207;56.328;43.994;2022-10-31T14:46:18;0.88;;;0.88;;
74677;SDS011;63207;56.328;43.994;2022-10-31T14:51:50;1.23;;;0.98;;
74677;SDS011;63207;56.328;43.994;2022-10-31T14:54:19;1.15;;;0.88;;
74677;SDS011;63207;56.328;43.994;2022-10-31T14:56:53;1.63;;;0.90;;
74677;SDS011;63207;56.328;43.994;2022-10-31T14:59:24;0.73;;;0.73;;
74677;SDS011;63207;56.328;43.994;2022-10-31T15:01:56;1.13;;;0.80;;
74677;SDS011;63207;56.328;43.994;2022-10-31T15:04:34;1.05;;;0.90;;
74677;SDS011;63207;56.328;43.994;2022-10-31T15:07:13;1.17;;;0.82;;
74677;SDS011;63207;56.328;43.994;2022-10-31T15:09:42;0.80;;;0.70;;
74677;SDS011;63207;56.328;43.994;2022-10-31T15:14:46;1.38;;;0.90;;
74677;SDS011;63207;56.328;43.994;2022-10-31T15:17:12;1.08;;;0.80;;
74677;SDS011;63207;56.328;43.994;2022-10-31T15:19:39;1.23;;;0.90;;
74677;SDS011;63207;56.328;43.994;2022-10-31T15:22:05;1.25;;;0.93;;
74677;SDS011;63207;56.328;43.994;2022-10-31T15:24:34;0.80;;;0.73;;
74677;SDS011;63207;56.328;43.994;2022-10-31T15:27:02;1.52;;;0.90;;
74677;SDS011;63207;56.328;43.994;2022-10-31T15:29:28;1.23;;;0.70;;
74677;SDS011;63207;56.328;43.994;2022-10-31T15:31:55;1.00;;;0.90;;
74677;SDS011;63207;56.328;43.994;2022-10-31T15:37:03;1.35;;;0.80;;
74677;SDS011;63207;56.328;43.994;2022-10-31T15:39:29;0.90;;;0.80;;
74677;SDS011;63207;56.328;43.994;2022-10-31T15:41:56;0.95;;;0.80;;
74677;SDS011;63207;56.328;43.994;2022-10-31T15:44:28;1.13;;;0.90;;
74677;SDS011;63207;56.328;43.994;2022-10-31T15:57:41;0.80;;;0.80;;
74677;SDS011;63207;56.328;43.994;2022-10-31T16:03:03;1.40;;;0.90;;
74677;SDS011;63207;56.328;43.994;2022-10-31T16:05:34;1.10;;;0.85;;
74677;SDS011;63207;56.328;43.994;2022-10-31T16:08:01;0.77;;;0.75;;
74677;SDS011;63207;56.328;43.994;2022-10-31T16:10:27;1.40;;;0.90;;
74677;SDS011;63207;56.328;43.994;2022-10-31T16:13:00;0.98;;;0.88;;
74677;SDS011;63207;56.328;43.994;2022-10-31T16:15:27;1.40;;;1.00;;
74677;SDS011;63207;56.328;43.994;2022-10-31T16:17:55;0.75;;;0.75;;
74677;SDS011;63207;56.328;43.994;2022-10-31T16:20:23;1.05;;;0.80;;
74677;SDS011;63207;56.328;43.994;2022-10-31T16:22:52;1.20;;;0.90;;
74677;SDS011;63207;56.328;43.994;2022-10-31T16:25:38;1.30;;;0.80;;
74677;SDS011;63207;56.328;43.994;2022-10-31T16:28:05;1.52;;;0.90;;
74677;SDS011;63207;56.328;43.994;2022-10-31T16:30:45;0.90;;;0.80;;
74677;SDS011;63207;56.328;43.994;2022-10-31T16:35:56;0.93;;;0.80;;
74677;SDS011;63207;56.328;43.994;2022-10-31T16:38:23;0.95;;;0.70;;
74677;SDS011;63207;56.328;43.994;2022-10-31T16:41:08;2.38;;;1.10;;
74677;SDS011;63207;56.328;43.994;2022-10-31T16:43:34;2.10;;;0.80;;
74677;SDS011;63207;56.328;43.994;2022-10-31T16:46:00;1.85;;;0.90;;
74677;SDS011;63207;56.328;43.994;2022-10-31T16:48:25;2.83;;;0.90;;
74677;SDS011;63207;56.328;43.994;2022-10-31T16:50:51;3.17;;;1.02;;
74677;SDS011;63207;56.328;43.994;2022-10-31T16:53:18;2.70;;;1.30;;
74677;SDS011;63207;56.328;43.994;2022-10-31T16:55:44;2.22;;;1.00;;
74677;SDS011;63207;56.328;43.994;2022-10-31T16:58:26;2.10;;;1.05;;
74677;SDS011;63207;56.328;43.994;2022-10-31T17:00:55;4.10;;;1.15;;
74677;SDS011;63207;56.328;43.994;2022-10-31T17:03:24;1.70;;;1.10;;
74677;SDS011;63207;56.328;43.994;2022-10-31T17:05:50;2.40;;;1.10;;
74677;SDS011;63207;56.328;43.994;2022-10-31T17:08:16;3.85;;;1.10;;
74677;SDS011;63207;56.328;43.994;2022-10-31T17:10:42;2.58;;;1.00;;
74677;SDS011;63207;56.328;43.994;2022-10-31T17:13:19;2.47;;;1.20;;
74677;SDS011;63207;56.328;43.994;2022-10-31T17:15:49;2.80;;;1.63;;
74677;SDS011;63207;56.328;43.994;2022-10-31T17:18:19;3.95;;;1.17;;
74677;SDS011;63207;56.328;43.994;2022-10-31T17:20:46;2.22;;;1.10;;
74677;SDS011;63207;56.328;43.994;2022-10-31T17:23:13;1.42;;;0.98;;
74677;SDS011;63207;56.328;43.994;2022-10-31T17:25:41;1.60;;;1.10;;
74677;SDS011;63207;56.328;43.994;2022-10-31T17:28:10;1.75;;;1.13;;
74677;SDS011;63207;56.328;43.994;2022-10-31T17:30:38;2.05;;;1.00;;
74677;SDS011;63207;56.328;43.994;2022-10-31T17:33:05;2.15;;;1.20;;
74677;SDS011;63207;56.328;43.994;2022-10-31T17:35:31;1.00;;;0.90;;
74677;SDS011;63207;56.328;43.994;2022-10-31T17:37:57;2.25;;;1.13;;
74677;SDS011;63207;56.328;43.994;2022-10-31T17:40:23;1.92;;;1.00;;
74677;SDS011;63207;56.328;43.994;2022-10-31T17:42:49;1.50;;;0.98;;
74677;SDS011;63207;56.328;43.994;2022-10-31T17:45:16;3.78;;;1.25;;
74677;SDS011;63207;56.328;43.994;2022-10-31T17:47:44;1.55;;;1.13;;
74677;SDS011;63207;56.328;43.994;2022-10-31T17:50:12;1.95;;;1.17;;
74677;SDS011;63207;56.328;43.994;2022-10-31T17:52:38;2.15;;;0.95;;
74677;SDS011;63207;56.328;43.994;2022-10-31T17:55:04;3.38;;;1.10;;
74677;SDS011;63207;56.328;43.994;2022-10-31T17:57:33;2.75;;;1.35;;
74677;SDS011;63207;56.328;43.994;2022-10-31T18:00:01;1.70;;;1.00;;
74677;SDS011;63207;56.328;43.994;2022-10-31T18:02:31;1.15;;;0.98;;
74677;SDS011;63207;56.328;43.994;2022-10-31T18:04:57;1.58;;;1.10;;
74677;SDS011;63207;56.328;43.994;2022-10-31T18:07:23;1.80;;;1.00;;
74677;SDS011;63207;56.328;43.994;2022-10-31T18:09:49;1.50;;;1.10;;